Time;durP1;ratioP1;P1;durP2;ratioP2;P2;SDS_P1;SDS_P2;PMS_P1;PMS_P2;Temp;Humidity;BMP_temperature;BMP_pressure;BME280_temperature;BME280_humidity;BME280_pressure;Samples;Min_cycle;Max_cycle;Signal;HPM_P1;HPM_P2
2022/01/23 00:02:19;;;;;;;222.35;28.95;;;4.00;99.90;;;2.55;100.00;102408.88;4874892;28;20023;-82
2022/01/23 00:04:48;;;;;;;115.13;25.15;;;4.00;99.90;;;2.54;100.00;102396.72;4869475;28;20523;-82
2022/01/23 00:07:16;;;;;;;98.70;25.25;;;4.00;99.90;;;2.56;100.00;102402.81;4863964;28;20091;-85
2022/01/23 00:09:55;;;;;;;102.38;24.05;;;4.10;99.90;;;2.61;100.00;102400.28;4841168;28;20034;-84
2022/01/23 00:12:24;;;;;;;176.40;27.85;;;4.10;99.90;;;2.64;100.00;102397.72;4866232;28;20457;-79
2022/01/23 00:17:54;;;;;;;177.13;29.48;;;;;;;2.71;100.00;102403.88;4884386;28;20111;-82
2022/01/23 00:20:20;;;;;;;;;;;4.20;99.90;;;2.72;100.00;102409.13;4875651;28;20093;-87
2022/01/23 00:23:27;;;;;;;95.57;25.65;;;;;;;2.77;100.00;102409.16;4867800;28;20422;-86
2022/01/23 00:31:33;;;;;;;76.28;24.45;;;;;;;2.88;100.00;102415.38;4872615;28;20086;-85
2022/01/23 00:34:00;;;;;;;94.03;26.40;;;4.30;99.90;;;2.94;100.00;102405.03;4899616;28;20096;-84
2022/01/23 00:36:36;;;;;;;99.90;27.92;;;4.40;99.90;;;3.00;100.00;102405.13;4860229;28;20039;-83
2022/01/23 00:39:04;;;;;;;108.22;27.27;;;4.40;99.90;;;3.05;100.00;102410.38;4907888;28;20030;-82
2022/01/23 00:41:30;;;;;;;77.57;25.25;;;4.50;99.90;;;3.10;100.00;102418.22;4874194;28;20061;-83
2022/01/23 00:44:05;;;;;;;81.43;25.90;;;4.50;99.90;;;3.16;100.00;102420.91;4874111;28;20050;-85
2022/01/23 00:46:34;;;;;;;106.00;29.63;;;4.60;99.90;;;3.16;100.00;102405.28;4862711;28;20049;-82
2022/01/23 00:49:57;;;;;;;102.25;28.73;;;4.60;99.90;;;3.24;100.00;102419.25;4904866;28;20118;-86
2022/01/23 00:52:24;;;;;;;105.22;28.85;;;;;;;3.25;100.00;102407.97;4876640;28;20090;-86
2022/01/23 00:55:00;;;;;;;125.25;29.77;;;4.70;99.90;;;3.26;100.00;102415.81;4892556;28;20042;-84
2022/01/23 00:57:26;;;;;;;;;;;4.80;99.90;;;3.28;100.00;102421.91;4862069;28;20019;-79
2022/01/23 00:59:52;;;;;;;;;;;4.80;99.90;;;3.26;100.00;102415.81;4887674;28;20291;-79
2022/01/23 01:02:18;;;;;;;115.20;28.38;;;4.80;99.90;;;3.24;100.00;102408.81;4907434;28;20001;-80
2022/01/23 01:04:47;;;;;;;177.50;37.28;;;4.80;99.90;;;3.24;100.00;102406.22;4881142;28;20034;-80
2022/01/23 01:07:13;;;;;;;437.35;50.22;;;4.80;99.90;;;3.27;100.00;102403.66;4898232;28;20031;-81
2022/01/23 01:09:39;;;;;;;171.05;33.88;;;4.80;99.90;;;3.32;100.00;102419.34;4882841;28;20540;-80
2022/01/23 01:12:09;;;;;;;254.43;40.72;;;4.80;99.90;;;3.37;100.00;102426.34;4857472;28;20118;-79
2022/01/23 01:31:01;;;;;;;800.17;177.82;;;4.90;99.90;;;3.49;100.00;102418.63;4941129;28;20043;-80
2022/01/23 01:33:51;;;;;;;66.45;27.65;;;4.90;99.90;;;3.52;100.00;102422.13;4906641;28;20062;-80
2022/01/23 01:36:25;;;;;;;68.57;29.38;;;5.00;99.90;;;3.56;100.00;102422.16;4897293;28;20051;-80
2022/01/23 01:38:52;;;;;;;57.78;26.55;;;4.90;99.90;;;3.57;100.00;102428.28;4868136;28;20031;-80
2022/01/23 01:41:20;;;;;;;96.88;54.80;;;5.00;99.90;;;3.60;100.00;102425.69;4907768;28;20114;-80
2022/01/23 01:43:48;;;;;;;49.50;24.80;;;5.00;99.90;;;3.66;100.00;102438.78;4873950;28;20027;-80
2022/01/23 01:46:15;;;;;;;51.30;26.08;;;5.10;99.90;;;3.72;100.00;102423.22;4898200;28;20020;-80
2022/01/23 01:48:42;;;;;;;59.80;28.30;;;5.10;99.90;;;3.79;100.00;102411.97;4884944;28;20062;-80
2022/01/23 01:51:16;;;;;;;204.77;159.13;;;5.20;99.90;;;3.82;100.00;102409.41;4901303;28;20511;-80
2022/01/23 01:53:49;;;;;;;48.78;24.75;;;5.30;99.90;;;3.87;100.00;102425.06;4889094;28;20070;-79
2022/01/23 01:56:16;;;;;;;56.58;28.23;;;5.30;99.90;;;3.90;100.00;102412.06;4873060;28;20591;-80
2022/01/23 02:09:24;;;;;;;40.30;19.33;;;5.40;99.90;;;3.95;100.00;102375.59;4858336;28;20479;-80
2022/01/23 02:22:39;;;;;;;32.90;18.50;;;5.40;99.90;;;3.98;100.00;102396.50;4907925;28;20034;-80
2022/01/23 02:55:21;;;;;;;60.63;21.65;;;5.50;99.90;;;4.07;100.00;102412.19;4887011;28;20027;-80
2022/01/23 02:57:57;;;;;;;88.90;28.20;;;5.50;99.90;;;4.06;100.00;102402.59;4885446;28;20106;-81
2022/01/23 03:00:27;;;;;;;60.85;21.90;;;5.50;99.90;;;4.07;100.00;102410.44;4870766;28;20031;-81
2022/01/23 03:03:01;;;;;;;53.30;21.35;;;5.50;99.90;;;4.06;100.00;102406.13;4890491;28;20043;-81
2022/01/23 03:10:58;;;;;;;22.92;12.63;;;5.40;99.90;;;3.98;100.00;102413.00;4894592;28;20049;-80
2022/01/23 03:24:42;;;;;;;18.25;9.00;;;5.40;99.90;;;3.90;100.00;102406.84;4865396;28;20031;-81
2022/01/23 03:29:55;;;;;;;13.98;8.68;;;5.50;99.90;;;3.99;100.00;102404.31;4840112;28;20066;-81
2022/01/23 03:32:44;;;;;;;14.02;9.52;;;5.50;99.90;;;3.96;100.00;102401.69;4867943;28;20039;-81
2022/01/23 03:35:16;;;;;;;14.05;9.40;;;5.50;99.90;;;4.00;100.00;102400.00;4843023;28;20107;-81
2022/01/23 03:37:42;;;;;;;14.02;9.48;;;5.50;99.90;;;4.01;100.00;102394.75;4857667;28;20023;-80
2022/01/23 03:40:09;;;;;;;18.10;10.80;;;5.50;99.90;;;4.06;100.00;102389.56;4880260;28;20038;-81
2022/01/23 03:42:38;;;;;;;19.92;11.88;;;5.60;99.90;;;4.09;100.00;102394.84;4871097;28;20027;-80
2022/01/23 03:48:01;;;;;;;15.63;9.70;;;5.60;99.90;;;4.09;100.00;102410.47;4881487;28;20563;-81
2022/01/23 03:50:27;;;;;;;13.23;9.52;;;5.50;99.90;;;4.04;100.00;102414.75;4878532;28;20141;-80
2022/01/23 03:52:53;;;;;;;14.80;9.13;;;5.60;99.90;;;4.10;100.00;102423.53;4861688;28;20038;-81
2022/01/23 03:55:19;;;;;;;21.38;11.57;;;5.60;99.90;;;4.10;100.00;102412.19;4888170;28;20042;-80
2022/01/23 03:57:48;;;;;;;17.75;11.18;;;5.60;99.90;;;4.11;100.00;102407.00;4866066;28;20031;-80
2022/01/23 04:00:17;;;;;;;19.60;12.25;;;5.60;99.90;;;4.14;100.00;102408.75;4866848;28;20027;-80
2022/01/23 04:02:44;;;;;;;14.40;9.75;;;5.60;99.90;;;4.17;100.00;102403.59;4880377;28;20038;-80
2022/01/23 04:05:10;;;;;;;11.82;9.35;;;5.60;99.90;;;4.18;100.00;102410.53;4873241;28;20103;-81
2022/01/23 04:07:37;;;;;;;15.75;11.20;;;5.60;99.90;;;4.17;100.00;102419.22;4909302;28;20039;-81
2022/01/23 04:10:09;;;;;;;14.15;9.65;;;5.60;99.90;;;4.20;100.00;102424.44;4912451;28;20630;-81
2022/01/23 04:21:16;;;;;;;17.63;11.25;;;5.70;99.90;;;4.26;100.00;102444.50;4899043;28;20086;-81
2022/01/23 04:45:23;;;;;;;19.75;10.88;;;5.70;99.90;;;4.25;100.00;102458.38;4875573;28;20122;-81
2022/01/23 05:04:28;;;;;;;15.00;8.75;;;5.60;99.90;;;4.08;100.00;102458.25;4881759;28;20019;-81
2022/01/23 05:07:03;;;;;;;10.65;7.63;;;5.60;99.90;;;4.02;100.00;102461.69;4902185;28;20025;-81
2022/01/23 05:09:34;;;;;;;11.00;7.50;;;5.50;99.90;;;3.96;100.00;102456.41;4863050;28;20513;-81
2022/01/23 05:12:08;;;;;;;9.88;6.65;;;5.50;99.90;;;3.96;100.00;102395.59;4864677;28;20133;-81
2022/01/23 05:14:45;;;;;;;15.55;8.40;;;5.50;99.90;;;3.94;100.00;102434.69;4878541;28;20015;-81
2022/01/23 05:17:14;;;;;;;14.43;7.13;;;5.50;99.90;;;3.93;100.00;102500.72;4863505;28;20039;-81
2022/01/23 05:19:43;;;;;;;9.55;6.95;;;5.50;99.90;;;3.89;100.00;102463.31;4899018;28;20031;-80
2022/01/23 05:24:39;;;;;;;14.43;7.35;;;5.40;99.90;;;3.90;100.00;102483.28;4876925;28;20415;-80
2022/01/23 05:27:11;;;;;;;11.65;7.63;;;5.40;99.90;;;3.91;100.00;102489.41;4894889;28;20487;-81
2022/01/23 05:29:39;;;;;;;17.05;8.00;;;5.40;99.90;;;3.92;100.00;102490.25;4896093;28;20027;-81
2022/01/23 05:32:09;;;;;;;14.68;7.68;;;5.40;99.90;;;3.89;100.00;102494.59;4895404;28;20519;-82
2022/01/23 05:34:45;;;;;;;14.93;8.57;;;5.40;99.90;;;3.88;100.00;102500.63;4849999;28;20036;-81
2022/01/23 05:37:11;;;;;;;13.20;7.82;;;5.40;99.90;;;3.87;100.00;102487.63;4871112;28;20050;-81
2022/01/23 05:39:37;;;;;;;14.02;7.63;;;5.40;99.90;;;3.85;100.00;102494.56;4923161;28;20034;-80
2022/01/23 05:42:09;;;;;;;12.90;7.50;;;5.40;99.90;;;3.83;100.00;102494.53;4824616;28;20054;-81
2022/01/23 05:44:37;;;;;;;16.35;8.00;;;5.40;99.90;;;3.83;100.00;102498.88;4901441;28;20031;-81
2022/01/23 05:47:08;;;;;;;14.73;7.88;;;5.40;99.90;;;3.82;100.00;102495.41;4872085;28;20019;-80
2022/01/23 05:49:36;;;;;;;14.95;9.10;;;5.40;99.90;;;3.77;100.00;102502.28;4889829;28;20030;-81
2022/01/23 05:52:05;;;;;;;18.52;9.50;;;5.30;99.90;;;3.77;100.00;102507.50;4866232;28;20034;-81
2022/01/23 05:54:36;;;;;;;24.60;9.88;;;5.30;99.90;;;3.77;100.00;102496.19;4869677;28;20031;-81
2022/01/23 05:57:03;;;;;;;13.30;8.70;;;5.30;99.90;;;3.78;100.00;102506.66;4888935;28;20027;-81
2022/01/23 05:59:29;;;;;;;18.48;8.73;;;5.30;99.90;;;3.79;100.00;102482.31;4895664;28;20022;-81
2022/01/23 06:01:55;;;;;;;16.33;8.80;;;5.30;99.90;;;3.79;100.00;102507.50;4885915;28;20109;-81
2022/01/23 06:04:24;;;;;;;13.20;8.93;;;5.30;99.90;;;3.85;100.00;102515.41;4889033;28;20031;-81
2022/01/23 06:06:58;;;;;;;15.55;8.10;;;5.40;99.90;;;3.88;100.00;102511.06;4882865;28;20019;-81
2022/01/23 06:09:26;;;;;;;13.05;8.85;;;5.40;99.90;;;3.87;100.00;102524.97;4864802;28;20028;-81
2022/01/23 06:11:53;;;;;;;16.98;8.20;;;5.40;99.90;;;3.90;100.00;102517.16;4876275;28;20055;-81
2022/01/23 06:14:23;;;;;;;13.13;8.18;;;5.40;99.90;;;3.90;100.00;102521.50;4843201;28;20092;-81
2022/01/23 06:16:49;;;;;;;12.60;8.00;;;5.40;99.90;;;3.88;100.00;102518.88;4915876;28;20037;-81
2022/01/23 06:19:17;;;;;;;13.30;7.63;;;5.40;99.90;;;3.90;100.00;102514.56;4857292;28;20065;-80
2022/01/23 06:21:43;;;;;;;15.48;7.90;;;5.40;99.90;;;3.90;100.00;102525.00;4884633;28;20126;-80
2022/01/23 06:24:14;;;;;;;19.45;7.30;;;5.40;99.90;;;3.89;100.00;102541.50;4884000;28;20516;-81
2022/01/23 06:26:49;;;;;;;9.65;6.68;;;5.40;99.90;;;3.94;100.00;102531.13;4866330;28;20106;-80
2022/01/23 06:29:20;;;;;;;12.77;6.40;;;5.40;99.90;;;3.93;100.00;102525.88;4892138;28;20078;-81
2022/01/23 06:31:58;;;;;;;15.10;7.03;;;5.40;99.90;;;3.92;100.00;102542.38;4874755;28;20038;-80
2022/01/23 06:34:25;;;;;;;9.98;6.60;;;5.40;99.90;;;3.89;100.00;102533.69;4890828;28;20052;-81
2022/01/23 06:36:52;;;;;;;22.10;7.30;;;5.40;99.90;;;3.94;100.00;102549.38;4854920;28;20032;-80
2022/01/23 06:39:20;;;;;;;13.48;6.68;;;5.40;99.90;;;3.95;100.00;102535.44;4898779;28;20534;-80
2022/01/23 06:41:55;;;;;;;22.60;7.72;;;5.50;99.90;;;3.96;100.00;102536.34;4863274;28;20414;-81
2022/01/23 06:44:22;;;;;;;15.65;7.07;;;5.40;99.90;;;3.95;100.00;102542.41;4877087;28;20043;-81
2022/01/23 06:46:49;;;;;;;16.83;8.02;;;5.40;99.90;;;3.96;100.00;102538.97;4874018;28;20023;-80
2022/01/23 06:49:16;;;;;;;17.15;8.30;;;5.40;99.90;;;3.96;100.00;102546.78;4891139;28;20032;-81
2022/01/23 06:51:43;;;;;;;8.82;6.05;;;5.50;99.90;;;3.98;100.00;102545.06;4861446;28;22723;-80
2022/01/23 06:54:11;;;;;;;20.77;7.65;;;5.50;99.90;;;4.02;100.00;102541.63;4858114;28;20023;-80
2022/01/23 06:56:37;;;;;;;15.55;7.25;;;5.50;99.90;;;4.04;100.00;102542.50;4853349;28;20652;-80
2022/01/23 06:59:03;;;;;;;13.18;6.95;;;5.50;99.90;;;4.09;100.00;102540.81;4903587;28;20023;-80
2022/01/23 07:01:31;;;;;;;13.75;6.55;;;5.60;99.90;;;4.15;100.00;102550.41;4869989;28;20038;-79
2022/01/23 07:03:59;;;;;;;10.90;6.57;;;5.60;99.90;;;4.22;100.00;102557.44;4834180;28;20039;-80
2022/01/23 07:06:25;;;;;;;13.38;6.30;;;5.70;99.90;;;4.27;100.00;102551.41;4885891;28;20069;-81
2022/01/23 07:08:51;;;;;;;10.85;6.28;;;5.70;99.90;;;4.30;100.00;102556.66;4856155;28;20051;-81
2022/01/23 07:11:18;;;;;;;14.88;6.25;;;5.70;99.90;;;4.31;100.00;102558.38;4879951;28;20050;-81
2022/01/23 07:13:44;;;;;;;12.32;5.85;;;5.70;99.90;;;4.29;100.00;102575.75;4868237;28;20039;-81
2022/01/23 07:16:13;;;;;;;8.75;5.28;;;5.70;99.90;;;4.27;100.00;102574.00;4878592;28;20023;-81
2022/01/23 07:18:41;;;;;;;11.90;6.28;;;5.70;99.90;;;4.26;100.00;102583.56;4863333;28;20093;-80
2022/01/23 07:21:07;;;;;;;13.15;5.78;;;5.70;99.90;;;4.25;100.00;102584.41;4871140;28;20102;-81
2022/01/23 07:23:33;;;;;;;12.18;7.10;;;5.70;99.90;;;4.26;100.00;102580.97;4886167;28;20392;-80
2022/01/23 07:25:59;;;;;;;16.13;9.23;;;5.70;99.90;;;4.23;100.00;102586.16;4873265;28;20034;-81
2022/01/23 07:28:36;;;;;;;16.13;8.75;;;5.70;99.90;;;4.21;100.00;102586.97;4864640;28;20120;-80
2022/01/23 07:31:05;;;;;;;20.23;9.27;;;5.60;99.90;;;4.18;100.00;102586.97;4859459;28;20043;-80
2022/01/23 07:33:38;;;;;;;14.57;9.00;;;5.70;99.90;;;4.21;100.00;102590.47;4846129;28;20030;-80
2022/01/23 07:36:05;;;;;;;13.63;8.23;;;5.70;99.90;;;4.23;100.00;102596.59;4844916;28;20113;-81
2022/01/23 07:38:31;;;;;;;10.40;6.93;;;5.70;99.90;;;4.24;100.00;102600.94;4871356;28;20043;-80
2022/01/23 07:41:03;;;;;;;10.20;6.35;;;5.70;99.90;;;4.23;100.00;102593.97;4883724;28;20030;-81
2022/01/23 07:43:29;;;;;;;14.93;6.78;;;5.70;99.90;;;4.30;100.00;102603.59;4861605;28;20099;-81
2022/01/23 07:45:55;;;;;;;8.00;5.63;;;5.70;99.90;;;4.34;100.00;102604.47;4873068;28;20038;-80
2022/01/23 07:48:21;;;;;;;12.13;6.68;;;5.80;99.90;;;4.32;100.00;102596.66;4923037;28;20056;-81
2022/01/23 07:50:47;;;;;;;19.05;8.15;;;5.80;99.90;;;4.42;100.00;102604.56;4863502;28;20191;-81
2022/01/23 07:53:13;;;;;;;12.55;6.80;;;5.80;99.90;;;4.45;100.00;102615.00;4882985;28;20523;-81
2022/01/23 07:55:44;;;;;;;14.50;6.93;;;5.80;99.90;;;4.45;100.00;102615.00;4883783;28;20031;-80
2022/01/23 07:58:14;;;;;;;19.13;7.03;;;5.80;99.90;;;4.45;100.00;102607.19;4846708;28;20046;-81
2022/01/23 08:00:41;;;;;;;22.60;7.28;;;5.80;99.90;;;4.48;100.00;102609.84;4919786;28;20111;-81
2022/01/23 08:03:15;;;;;;;13.93;7.03;;;5.90;99.90;;;4.48;100.00;102620.28;4880733;28;20023;-81
2022/01/23 08:05:43;;;;;;;12.25;6.22;;;5.90;99.90;;;4.47;100.00;102616.81;4877492;28;20038;-81
2022/01/23 08:08:09;;;;;;;10.48;6.25;;;5.90;99.90;;;4.49;100.00;102604.66;4904806;28;20027;-80
2022/01/23 08:10:44;;;;;;;12.63;7.13;;;5.90;99.90;;;4.57;100.00;102612.53;4883058;28;20335;-82
2022/01/23 08:13:09;;;;;;;18.63;7.45;;;6.00;99.90;;;4.61;100.00;102616.03;4899032;28;20851;-81
2022/01/23 08:15:35;;;;;;;14.02;6.30;;;6.00;99.90;;;4.65;100.00;102623.91;4897734;28;20035;-80
2022/01/23 08:18:06;;;;;;;11.65;6.72;;;6.10;99.90;;;4.71;100.00;102631.78;4857563;28;20393;-81
2022/01/23 08:20:34;;;;;;;14.98;5.93;;;6.10;99.90;;;4.81;100.00;102639.69;4882423;28;20028;-81
2022/01/23 08:23:05;;;;;;;12.10;6.70;;;6.10;99.90;;;4.80;100.00;102644.03;4871231;28;20027;-81
2022/01/23 08:25:37;;;;;;;14.63;6.25;;;6.20;99.90;;;4.86;100.00;102645.81;4900617;28;20031;-80
2022/01/23 08:28:03;;;;;;;10.40;6.13;;;6.20;99.90;;;4.83;100.00;102628.38;4868454;28;20047;-80
2022/01/23 08:30:31;;;;;;;10.88;5.53;;;6.20;99.90;;;4.86;100.00;102622.31;4865490;28;20524;-81
2022/01/23 08:32:57;;;;;;;8.30;5.20;;;6.20;99.90;;;4.87;100.00;102616.25;4857320;28;20031;-81
2022/01/23 08:35:29;;;;;;;13.93;6.22;;;6.30;99.90;;;4.88;100.00;102613.66;4920851;28;20476;-81
2022/01/23 08:37:55;;;;;;;16.48;6.68;;;6.30;99.90;;;4.92;100.00;102612.81;4913791;28;20067;-81
2022/01/23 08:40:34;;;;;;;11.20;6.68;;;6.30;99.90;;;5.00;100.00;102607.63;4877496;28;20027;-80
2022/01/23 08:43:00;;;;;;;11.27;6.40;;;6.40;99.90;;;5.00;100.00;102609.38;4897221;28;20038;-81
2022/01/23 08:45:26;;;;;;;14.88;7.10;;;6.40;99.90;;;5.00;100.00;102612.84;4862986;28;20052;-81
2022/01/23 08:47:52;;;;;;;13.80;6.72;;;6.40;99.90;;;5.01;100.00;102614.63;4865092;28;20094;-81
2022/01/23 08:50:18;;;;;;;13.88;7.68;;;6.40;99.90;;;5.01;100.00;102618.94;4886470;28;20051;-81
2022/01/23 08:52:46;;;;;;;20.10;6.25;;;6.40;99.90;;;5.05;100.00;102624.19;4881935;28;20570;-81
2022/01/23 08:55:12;;;;;;;19.17;8.13;;;6.40;99.90;;;5.11;100.00;102626.84;4871596;28;20718;-81
2022/01/23 08:57:38;;;;;;;10.32;5.90;;;6.40;99.90;;;5.01;100.00;102635.50;4887451;28;20031;-81
2022/01/23 09:00:08;;;;;;;15.38;8.55;;;6.40;99.90;;;4.97;100.00;102633.72;4874929;28;20518;-81
2022/01/23 09:02:34;;;;;;;16.13;8.15;;;6.40;99.90;;;5.03;100.00;102627.66;4885785;28;20053;-81
2022/01/23 09:05:03;;;;;;;12.52;6.75;;;6.40;99.90;;;4.99;100.00;102626.78;4886639;28;20024;-81
2022/01/23 09:07:29;;;;;;;15.25;7.97;;;6.40;99.90;;;4.96;100.00;102624.13;4874234;28;20656;-81
2022/01/23 09:10:01;;;;;;;14.02;6.78;;;6.40;99.90;;;4.93;100.00;102632.81;4855861;28;20027;-81
2022/01/23 09:12:57;;;;;;;16.25;6.35;;;6.40;99.90;;;4.89;100.00;102623.22;4891436;28;20031;-80
2022/01/23 09:15:23;;;;;;;14.73;6.13;;;6.30;99.90;;;4.85;100.00;102629.28;4875896;28;20094;-80
2022/01/23 09:17:51;;;;;;;10.65;5.38;;;6.30;99.90;;;4.78;100.00;102626.63;4904960;28;20481;-81
2022/01/23 09:20:17;;;;;;;8.88;4.85;;;6.30;99.90;;;4.74;100.00;102636.16;4875520;28;20074;-81
2022/01/23 09:22:43;;;;;;;6.35;4.28;;;6.20;99.90;;;4.69;100.00;102638.72;4875830;28;20023;-83
2022/01/23 09:25:09;;;;;;;8.15;3.75;;;6.20;99.90;;;4.65;100.00;102636.09;4866966;28;20023;-82
2022/01/23 09:28:02;;;;;;;9.77;3.60;;;6.20;99.90;;;4.63;100.00;102625.63;4858691;28;20036;-80
2022/01/23 09:30:36;;;;;;;15.73;3.85;;;6.10;99.90;;;4.62;100.00;102626.50;4881222;28;20062;-81
2022/01/23 09:33:05;;;;;;;24.35;4.53;;;6.10;99.90;;;4.60;100.00;102628.22;4841795;28;20023;-81
2022/01/23 09:35:45;;;;;;;11.30;4.22;;;6.10;99.90;;;4.60;100.00;102623.00;4899079;28;20086;-81
2022/01/23 09:38:11;;;;;;;5.53;2.95;;;6.10;99.90;;;4.57;100.00;102607.31;4816915;28;20036;-81
2022/01/23 09:40:57;;;;;;;7.00;3.45;;;6.10;99.90;;;4.57;100.00;102622.97;4909141;28;20043;-80
2022/01/23 09:43:30;;;;;;;4.43;2.67;;;6.10;99.90;;;4.59;100.00;102646.47;4890771;28;20032;-80
2022/01/23 09:45:56;;;;;;;3.90;2.63;;;6.10;99.90;;;4.61;100.00;102655.19;4876206;28;20499;-81
2022/01/23 09:48:35;;;;;;;4.75;2.75;;;6.10;99.90;;;4.60;100.00;102671.69;4865445;28;20027;-81
2022/01/23 09:53:55;;;;;;;7.00;3.03;;;6.10;99.90;;;4.68;100.00;102657.84;4884613;28;20024;-81
2022/01/23 09:56:37;;;;;;;5.07;1.90;;;6.10;99.90;;;4.66;100.00;102661.31;4862911;28;20031;-81
2022/01/23 09:59:03;;;;;;;3.70;2.30;;;6.20;99.90;;;4.75;100.00;102670.94;4896889;28;20179;-81
2022/01/23 10:01:36;;;;;;;7.72;2.55;;;6.30;99.90;;;4.79;100.00;102672.72;4859057;28;20039;-80
2022/01/23 10:04:02;;;;;;;6.40;2.70;;;6.30;99.90;;;4.88;100.00;102681.53;4871089;28;20063;-80
2022/01/23 10:06:31;;;;;;;1.90;1.50;;;6.30;99.90;;;4.92;100.00;102669.34;4866273;28;20581;-82
2022/01/23 10:09:07;;;;;;;3.00;1.75;;;6.40;99.90;;;4.91;100.00;102676.31;4858586;28;20447;-81
2022/01/23 10:11:39;;;;;;;1.85;1.45;;;6.40;99.90;;;4.96;100.00;102668.50;4855623;28;20598;-81
2022/01/23 10:14:12;;;;;;;3.33;1.67;;;6.40;99.90;;;5.02;100.00;102680.75;4877918;28;20028;-80
2022/01/23 10:16:43;;;;;;;3.50;1.48;;;6.40;99.90;;;5.03;100.00;102669.44;4891326;28;20027;-79
2022/01/23 10:19:14;;;;;;;4.63;2.15;;;6.50;99.90;;;5.17;100.00;102672.16;4881835;28;22723;-81
2022/01/23 10:21:45;;;;;;;3.60;1.60;;;6.60;99.90;;;5.25;100.00;102665.25;4892200;28;20028;-80
2022/01/23 10:24:17;;;;;;;1.50;1.17;;;6.70;99.90;;;5.39;100.00;102658.38;4865464;28;20107;-80
2022/01/23 10:26:55;;;;;;;3.60;1.58;;;6.80;99.90;;;5.47;100.00;102650.59;4883164;28;20106;-81
2022/01/23 10:29:34;;;;;;;2.35;1.38;;;6.90;99.90;;;5.55;100.00;102660.22;4910568;28;20076;-80
2022/01/23 10:32:20;;;;;;;4.93;1.55;;;6.90;99.90;;;5.53;100.00;102655.84;4903575;28;20677;-79
2022/01/23 10:37:37;;;;;;;4.10;1.83;;;6.90;99.90;;;5.50;100.00;102656.69;4866437;28;20078;-80
2022/01/23 10:40:23;;;;;;;1.67;1.30;;;6.90;99.90;;;5.56;100.00;102658.47;4869974;28;20404;-81
2022/01/23 10:48:36;;;;;;;2.20;1.38;;;7.00;99.90;;;5.55;100.00;102665.44;4925437;28;20099;-81
2022/01/23 10:51:23;;;;;;;2.33;1.35;;;7.00;99.90;;;5.57;100.00;102664.56;4908267;28;20043;-80
2022/01/23 10:54:15;;;;;;;1.40;1.10;;;6.90;99.90;;;5.57;100.00;102667.16;4902810;28;20117;-79
2022/01/23 10:57:08;;;;;;;3.20;1.27;;;7.00;99.90;;;5.61;100.00;102667.19;4877835;28;20031;-81
2022/01/23 10:59:48;;;;;;;2.28;0.98;;;7.00;99.90;;;5.57;100.00;102667.16;4915373;28;20050;-80
2022/01/23 11:02:23;;;;;;;0.38;0.38;;;7.00;99.90;;;5.55;100.00;102665.44;4882171;28;20083;-80
2022/01/23 11:05:00;;;;;;;1.27;0.80;;;7.00;99.90;;;5.52;100.00;102672.38;4870518;28;20035;-80
2022/01/23 11:07:30;;;;;;;2.20;1.17;;;7.00;99.90;;;5.51;100.00;102668.03;4863260;28;20025;-81
2022/01/23 11:10:08;;;;;;;1.95;1.00;;;7.00;99.90;;;5.57;100.00;102667.16;4888354;28;20035;-79
2022/01/23 11:18:10;;;;;;;1.10;0.60;;;6.90;99.90;;;5.41;100.00;102672.31;4914404;28;20046;-80
2022/01/23 11:20:50;;;;;;;1.58;0.77;;;6.90;99.90;;;5.32;100.00;102674.88;4899555;28;20038;-78
2022/01/23 11:23:29;;;;;;;1.25;1.10;;;6.80;99.90;;;5.24;100.00;102663.50;4892557;28;20110;-80
2022/01/23 11:25:55;;;;;;;0.70;0.70;;;6.80;99.90;;;5.29;100.00;102672.22;4922044;28;20051;-80
2022/01/23 11:28:38;;;;;;;1.77;1.00;;;6.80;99.90;;;5.35;100.00;102664.44;4901814;28;20107;-79
2022/01/23 11:31:10;;;;;;;0.80;0.63;;;6.80;99.90;;;5.38;100.00;102672.31;4874736;28;20115;-80
2022/01/23 11:33:38;;;;;;;1.33;1.13;;;6.90;99.90;;;5.36;100.00;102671.41;4881231;28;20034;-81
2022/01/23 11:36:05;;;;;;;1.73;0.98;;;6.80;99.90;;;5.29;100.00;102674.84;4861882;28;20043;-84
2022/01/23 11:38:32;;;;;;;2.42;1.20;;;6.80;99.90;;;5.33;100.00;102676.59;4892969;28;20030;-82
2022/01/23 11:55:37;;;;;;;5.13;1.30;;;6.80;99.90;;;5.38;100.00;102672.31;4903792;28;20459;-79
2022/01/23 11:58:25;;;;;;;3.13;1.23;;;6.90;99.90;;;5.44;100.00;102676.69;4862360;28;20027;-80
2022/01/23 12:00:51;;;;;;;3.00;1.48;;;6.90;99.90;;;5.50;100.00;102677.59;4855698;28;22475;-80
2022/01/23 12:03:21;;;;;;;2.05;1.45;;;6.90;99.90;;;5.59;100.00;102681.13;4883849;28;20070;-79
2022/01/23 12:05:50;;;;;;;1.40;1.00;;;7.00;99.90;;;5.57;100.00;102688.06;4893604;28;20226;-79
2022/01/23 12:08:28;;;;;;;0.65;0.47;;;7.00;99.90;;;5.55;100.00;102696.78;4902909;28;20469;-79
2022/01/23 12:16:21;;;;;;;7.72;0.90;;;6.90;99.90;;;5.43;100.00;102696.72;4891306;28;20027;-79
2022/01/23 12:17:10;;;;;;;0.93;0.70;;;7.00;99.90;;;5.47;100.00;102698.47;4898972;28;20037;-79
2022/01/23 12:19:54;;;;;;;0.50;0.50;;;6.90;99.90;;;5.49;100.00;102685.44;4909443;28;20027;-79
2022/01/23 12:22:40;;;;;;;2.25;0.63;;;6.90;99.90;;;5.45;100.00;102681.91;4866275;28;20603;-79
2022/01/23 12:25:24;;;;;;;0.40;0.40;;;6.90;99.90;;;5.46;100.00;102685.41;4860811;28;21000;-79
2022/01/23 12:28:31;;;;;;;1.70;0.88;;;6.90;99.90;;;5.41;100.00;102684.50;4887562;28;20062;-79
2022/01/23 12:31:13;;;;;;;0.40;0.40;;;6.90;99.90;;;5.42;100.00;102684.53;4877717;28;20047;-78
2022/01/23 12:34:00;;;;;;;0.57;0.55;;;6.90;99.90;;;5.46;100.00;102683.66;4888208;28;20050;-79
2022/01/23 12:36:37;;;;;;;2.10;0.57;;;6.90;99.90;;;5.51;100.00;102686.31;4901390;28;20491;-80
2022/01/23 12:39:12;;;;;;;0.90;0.55;;;;;;;5.52;100.00;102695.88;4893060;28;20118;-78
2022/01/23 12:42:02;;;;;;;1.25;0.60;;;7.00;99.90;;;5.59;100.00;102702.03;4945388;28;20031;-79
2022/01/23 12:44:30;;;;;;;0.30;0.30;;;7.10;99.90;;;5.64;100.00;102695.09;4877697;28;20023;-80
2022/01/23 12:47:04;;;;;;;1.13;0.63;;;7.10;99.90;;;5.67;100.00;102705.56;4882789;28;20504;-79
2022/01/23 12:49:51;;;;;;;0.75;0.30;;;7.10;99.90;;;5.77;100.00;102702.13;4897272;28;20114;-79
2022/01/23 12:52:21;;;;;;;0.63;0.40;;;7.10;99.90;;;5.76;100.00;102708.22;4888625;28;20475;-80
2022/01/23 12:54:47;;;;;;;0.20;0.20;;;7.20;99.90;;;5.73;100.00;102705.59;4899416;28;20487;-79
2022/01/23 12:57:23;;;;;;;0.47;0.35;;;7.20;99.90;;;5.78;100.00;102703.88;4918890;28;20034;-79
2022/01/23 12:59:57;;;;;;;0.70;0.10;;;7.20;99.90;;;5.71;100.00;102702.97;4927656;28;20027;-79
2022/01/23 13:02:30;;;;;;;1.02;0.60;;;7.20;99.90;;;5.70;100.00;102705.56;4895193;28;20034;-81
2022/01/23 13:04:57;;;;;;;0.38;0.35;;;7.20;99.90;;;5.69;100.00;102707.31;4887125;28;20023;-78
2022/01/23 13:07:46;;;;;;;1.60;0.50;;;7.20;99.90;;;5.78;100.00;102713.47;4914202;28;20023;-78
2022/01/23 13:13:12;;;;;;;0.95;0.57;;;7.20;99.90;;;5.80;100.00;102714.34;4893857;28;20442;-80
2022/01/23 13:15:42;;;;;;;0.40;0.32;;;7.20;99.90;;;5.80;100.00;102717.81;4907495;28;20476;-79
2022/01/23 13:32:12;;;;;;;5.15;0.80;;;7.30;99.90;;;5.85;100.00;102716.13;4902452;28;20035;-79
2022/01/23 13:34:50;;;;;;;1.27;0.80;;;7.30;99.90;;;5.87;100.00;102722.22;4905641;28;20027;-79
2022/01/23 13:37:23;;;;;;;1.30;0.73;;;7.30;99.90;;;5.86;100.00;102720.47;4894143;28;20039;-79
2022/01/23 13:39:57;;;;;;;5.95;1.00;;;7.20;99.90;;;5.87;100.00;102732.66;4870430;28;20031;-79
2022/01/23 13:51:42;;;;;;;1.17;0.80;;;7.40;99.90;;;6.05;100.00;102720.59;4920819;28;20105;-79
2022/01/23 13:59:55;;;;;;;0.40;0.38;;;7.30;99.90;;;5.84;100.00;102723.94;4905817;28;20486;-79
2022/01/23 14:02:34;;;;;;;1.90;0.52;;;7.30;99.90;;;5.86;100.00;102717.88;4871356;28;20046;-79
2022/01/23 14:05:06;;;;;;;3.72;0.60;;;7.30;99.90;;;5.86;100.00;102711.75;4882332;28;20024;-79
2022/01/23 14:07:33;;;;;;;1.27;0.70;;;7.30;99.90;;;5.93;100.00;102716.16;4885813;28;20164;-79
2022/01/23 14:10:20;;;;;;;0.98;0.60;;;7.40;99.90;;;5.97;100.00;102717.06;4894183;28;20019;-79